Time;durP1;ratioP1;P1;durP2;ratioP2;P2;SDS_P1;SDS_P2;PMS_P1;PMS_P2;Temp;Humidity;BMP_temperature;BMP_pressure;BME280_temperature;BME280_humidity;BME280_pressure;Samples;Min_cycle;Max_cycle;Signal;HPM_P1;HPM_P2
2022/07/13 00:00:36;;;;;;;4.07;2.95;;;20.90;99.90;;;;;;5044988;28;20041;-82
2022/07/13 00:03:03;;;;;;;3.70;3.13;;;21.00;99.90;;;;;;5048010;28;20043;-82
2022/07/13 00:05:28;;;;;;;3.70;3.30;;;20.90;99.90;;;;;;5043014;28;20025;-82
2022/07/13 00:07:54;;;;;;;4.05;3.65;;;20.80;99.90;;;;;;5048007;28;20052;-82
2022/07/13 00:10:20;;;;;;;5.88;3.67;;;20.80;99.90;;;;;;5047902;28;20095;-81
2022/07/13 00:12:45;;;;;;;4.00;3.00;;;20.90;99.90;;;;;;5047846;28;20533;-83
2022/07/13 00:15:11;;;;;;;6.68;3.50;;;20.80;99.90;;;;;;5044686;28;20545;-82
2022/07/13 00:17:37;;;;;;;4.25;3.38;;;20.80;99.90;;;;;;5046741;28;20067;-82
2022/07/13 00:20:03;;;;;;;4.40;3.40;;;20.90;99.90;;;;;;5047093;28;20127;-81
2022/07/13 00:22:29;;;;;;;4.38;3.10;;;20.80;99.90;;;;;;5046669;28;20037;-82
2022/07/13 00:24:54;;;;;;;3.67;2.90;;;20.80;99.90;;;;;;5043785;28;20139;-81
2022/07/13 00:27:20;;;;;;;3.83;2.85;;;20.80;99.90;;;;;;5047242;28;20419;-82
2022/07/13 00:29:45;;;;;;;4.60;3.53;;;20.80;99.90;;;;;;5048007;28;20040;-80
2022/07/13 00:32:11;;;;;;;4.38;3.97;;;20.80;99.90;;;;;;5046493;28;20088;-82
2022/07/13 00:34:37;;;;;;;5.28;3.55;;;20.80;99.90;;;;;;5045952;28;20067;-86
2022/07/13 00:37:02;;;;;;;4.45;3.78;;;20.80;99.90;;;;;;5044698;28;20079;-82
2022/07/13 00:39:28;;;;;;;5.43;4.22;;;20.80;99.90;;;;;;5047771;28;20075;-82
2022/07/13 00:41:53;;;;;;;4.85;4.00;;;20.80;99.90;;;;;;5029872;28;20071;-82
2022/07/13 00:44:19;;;;;;;6.15;4.00;;;20.80;99.90;;;;;;5046352;28;20045;-81
2022/07/13 00:46:52;;;;;;;6.68;3.83;;;20.70;99.90;;;;;;5044017;28;20908;-85
2022/07/13 00:49:18;;;;;;;6.80;4.40;;;20.80;99.90;;;;;;5029719;28;20029;-82
2022/07/13 00:51:43;;;;;;;5.25;3.88;;;20.80;99.90;;;;;;5045978;28;20029;-82
2022/07/13 00:54:10;;;;;;;5.93;4.25;;;20.80;99.90;;;;;;5051004;28;20041;-84
2022/07/13 00:56:36;;;;;;;5.07;4.53;;;20.80;99.90;;;;;;5048057;28;20047;-81
2022/07/13 00:59:05;;;;;;;5.95;4.50;;;20.70;99.90;;;;;;5029702;28;20517;-81
2022/07/13 01:01:30;;;;;;;5.28;3.92;;;20.70;99.90;;;;;;5031998;28;20037;-81
2022/07/13 01:03:56;;;;;;;5.38;4.85;;;20.70;99.90;;;;;;5042509;28;20075;-82
2022/07/13 01:06:22;;;;;;;6.28;4.72;;;20.70;99.90;;;;;;5043311;28;20072;-82
2022/07/13 01:08:48;;;;;;;4.97;4.43;;;20.70;99.90;;;;;;5045060;28;20037;-82
2022/07/13 01:11:14;;;;;;;6.20;4.20;;;20.70;99.90;;;;;;5046756;28;20501;-82
2022/07/13 01:13:40;;;;;;;9.40;4.43;;;20.70;99.90;;;;;;5046665;28;20037;-82
2022/07/13 01:16:08;;;;;;;8.93;4.95;;;20.70;99.90;;;;;;5044112;28;20043;-82
2022/07/13 01:18:34;;;;;;;8.95;4.60;;;20.70;99.90;;;;;;5044844;28;20372;-84
2022/07/13 01:21:00;;;;;;;9.65;5.38;;;20.70;99.90;;;;;;5059021;28;20068;-81
2022/07/13 01:23:26;;;;;;;7.13;5.00;;;20.70;99.90;;;;;;5043257;28;20087;-81
2022/07/13 01:25:56;;;;;;;6.90;4.60;;;20.60;99.90;;;;;;5045417;28;20411;-82
2022/07/13 01:28:22;;;;;;;5.95;5.32;;;20.70;99.90;;;;;;5046113;28;20068;-81
2022/07/13 01:30:48;;;;;;;5.93;5.20;;;20.60;99.90;;;;;;5046853;28;20029;-82
2022/07/13 01:33:13;;;;;;;6.07;5.43;;;20.60;99.90;;;;;;5044858;28;20037;-81
2022/07/13 01:35:39;;;;;;;6.47;5.57;;;20.60;99.90;;;;;;5044173;28;20100;-81
2022/07/13 01:38:04;;;;;;;6.88;5.63;;;20.60;99.90;;;;;;5044631;28;20049;-84
2022/07/13 01:40:30;;;;;;;7.00;6.00;;;20.60;99.90;;;;;;5039197;28;20033;-83
2022/07/13 01:42:55;;;;;;;7.03;5.40;;;20.60;99.90;;;;;;5043520;28;20044;-81
2022/07/13 01:45:23;;;;;;;6.00;5.40;;;20.60;99.90;;;;;;5031521;28;20068;-82
2022/07/13 01:47:52;;;;;;;9.13;5.90;;;20.60;99.90;;;;;;5045967;28;20171;-82
2022/07/13 01:50:20;;;;;;;6.82;5.50;;;20.60;99.90;;;;;;5043636;28;20033;-81
2022/07/13 01:52:47;;;;;;;9.43;6.05;;;20.60;99.90;;;;;;5044123;28;20037;-81
2022/07/13 01:55:13;;;;;;;7.13;5.55;;;20.60;99.90;;;;;;5044494;28;20037;-82
2022/07/13 01:57:39;;;;;;;6.30;5.45;;;20.60;99.90;;;;;;5044073;28;21012;-83
2022/07/13 02:00:14;;;;;;;5.75;5.20;;;20.60;99.90;;;;;;5042075;28;20040;-81
2022/07/13 02:02:41;;;;;;;6.97;6.13;;;20.60;99.90;;;;;;5044073;28;20053;-82
2022/07/13 02:05:07;;;;;;;5.80;5.25;;;20.60;99.90;;;;;;5043844;28;20060;-82
2022/07/13 02:07:32;;;;;;;7.70;5.65;;;20.60;99.90;;;;;;5043397;28;20529;-81
2022/07/13 02:09:58;;;;;;;7.35;5.75;;;20.70;99.90;;;;;;5044683;28;20037;-82
2022/07/13 02:12:23;;;;;;;6.88;5.80;;;20.60;99.90;;;;;;5041823;28;20033;-82
2022/07/13 02:14:49;;;;;;;7.40;5.82;;;20.60;99.90;;;;;;5045172;28;20155;-84
2022/07/13 02:17:15;;;;;;;6.72;5.97;;;20.60;99.90;;;;;;5043105;28;20112;-81
2022/07/13 02:19:40;;;;;;;7.82;5.50;;;20.60;99.90;;;;;;5044488;28;20513;-81
2022/07/13 02:22:07;;;;;;;8.07;5.85;;;20.50;99.90;;;;;;5028394;28;20037;-82
2022/07/13 02:24:36;;;;;;;6.63;5.82;;;20.50;99.90;;;;;;5043377;28;20077;-82
2022/07/13 02:27:02;;;;;;;5.57;4.97;;;20.50;99.90;;;;;;5043963;28;20430;-82
2022/07/13 02:29:27;;;;;;;9.45;5.68;;;20.50;99.90;;;;;;5046209;28;20036;-81
2022/07/13 02:31:53;;;;;;;6.55;5.50;;;20.50;99.90;;;;;;5043266;28;20040;-81
2022/07/13 02:34:18;;;;;;;5.78;5.20;;;20.50;99.90;;;;;;5043547;28;20120;-82
2022/07/13 02:36:44;;;;;;;6.00;5.40;;;20.50;99.90;;;;;;5043860;28;20691;-84
2022/07/13 02:39:10;;;;;;;5.93;5.32;;;20.60;99.90;;;;;;5043225;28;20048;-81
2022/07/13 02:41:36;;;;;;;7.25;5.63;;;20.50;99.90;;;;;;5039863;28;20130;-82
2022/07/13 02:44:02;;;;;;;7.78;5.57;;;20.50;99.90;;;;;;5028272;28;20525;-81
2022/07/13 02:46:27;;;;;;;6.90;5.90;;;20.60;99.90;;;;;;5046697;28;20041;-81
2022/07/13 02:48:53;;;;;;;6.20;5.60;;;20.60;99.90;;;;;;5043780;28;20760;-83
2022/07/13 02:51:18;;;;;;;6.35;5.40;;;20.60;99.90;;;;;;5047029;28;20547;-83
2022/07/13 02:53:44;;;;;;;9.52;6.03;;;20.50;99.90;;;;;;5027381;28;20120;-86
2022/07/13 02:56:09;;;;;;;6.25;5.68;;;20.60;99.90;;;;;;5043258;28;20128;-81
2022/07/13 02:58:35;;;;;;;7.38;5.90;;;20.60;99.90;;;;;;5044742;28;20068;-82
2022/07/13 03:01:00;;;;;;;6.22;5.63;;;20.60;99.90;;;;;;5043192;28;20040;-82
2022/07/13 03:03:26;;;;;;;6.75;6.05;;;20.60;99.90;;;;;;5055715;28;20094;-82
2022/07/13 03:05:51;;;;;;;6.60;5.28;;;20.60;99.90;;;;;;5043878;28;20037;-82
2022/07/13 03:08:17;;;;;;;7.82;5.70;;;20.60;99.90;;;;;;5044601;28;20530;-81
2022/07/13 03:10:43;;;;;;;7.50;5.45;;;20.50;99.90;;;;;;5045048;28;20408;-82
2022/07/13 03:13:08;;;;;;;7.85;5.28;;;20.60;99.90;;;;;;5045465;28;20029;-82
2022/07/13 03:15:34;;;;;;;6.10;5.50;;;20.60;99.90;;;;;;5043584;28;20112;-83
2022/07/13 03:17:59;;;;;;;6.82;5.78;;;20.60;99.90;;;;;;5044833;28;20033;-82
2022/07/13 03:20:25;;;;;;;6.40;5.80;;;20.60;99.90;;;;;;5042421;28;20037;-82
2022/07/13 03:22:51;;;;;;;8.75;5.90;;;20.60;99.90;;;;;;5043980;28;20036;-81
2022/07/13 03:25:16;;;;;;;7.47;5.28;;;20.50;99.90;;;;;;5042054;28;20045;-82
2022/07/13 03:27:42;;;;;;;5.47;4.97;;;20.50;99.90;;;;;;5042648;28;20045;-82
2022/07/13 03:30:08;;;;;;;9.70;5.72;;;20.60;99.90;;;;;;5042234;28;20489;-83
2022/07/13 03:32:34;;;;;;;7.07;5.20;;;20.50;99.90;;;;;;5045306;28;20402;-83
2022/07/13 03:34:59;;;;;;;7.22;5.13;;;20.50;99.90;;;;;;5042920;28;20112;-83
2022/07/13 03:37:25;;;;;;;5.60;5.10;;;20.50;99.90;;;;;;5043433;28;20080;-82
2022/07/13 03:39:51;;;;;;;5.60;5.00;;;20.50;99.90;;;;;;5044779;28;20037;-82
2022/07/13 03:42:16;;;;;;;6.22;5.65;;;20.50;99.90;;;;;;5044659;28;20033;-82
2022/07/13 03:44:42;;;;;;;6.10;5.47;;;20.50;99.90;;;;;;5047595;28;20528;-85
2022/07/13 03:47:08;;;;;;;5.57;5.07;;;20.50;99.90;;;;;;5042352;28;20097;-82
2022/07/13 03:49:33;;;;;;;6.60;5.07;;;20.50;99.90;;;;;;5047670;28;20115;-82
2022/07/13 03:51:59;;;;;;;7.03;5.43;;;20.40;99.90;;;;;;5045871;28;20136;-82
2022/07/13 03:54:24;;;;;;;6.28;5.20;;;20.50;99.90;;;;;;5049477;28;20040;-83
2022/07/13 03:56:50;;;;;;;5.72;5.00;;;20.40;99.90;;;;;;5031873;28;20082;-81
2022/07/13 03:59:16;;;;;;;5.30;4.80;;;20.40;99.90;;;;;;5044342;28;20037;-83
2022/07/13 04:01:42;;;;;;;7.75;5.03;;;20.40;99.90;;;;;;5046333;28;21777;-82
2022/07/13 04:04:08;;;;;;;7.47;5.30;;;20.50;99.90;;;;;;5047137;28;20048;-81
2022/07/13 04:06:33;;;;;;;6.25;5.47;;;20.40;99.90;;;;;;5045973;28;20033;-81
2022/07/13 04:08:59;;;;;;;5.90;5.00;;;20.40;99.90;;;;;;5047799;28;20041;-82
2022/07/13 04:11:28;;;;;;;9.13;4.90;;;20.40;99.90;;;;;;5027695;28;20037;-82
2022/07/13 04:13:54;;;;;;;5.35;4.85;;;20.40;99.90;;;;;;5043474;28;20033;-82
2022/07/13 04:16:19;;;;;;;7.53;5.28;;;20.40;99.90;;;;;;5048456;28;20138;-82
2022/07/13 04:18:45;;;;;;;6.47;5.00;;;20.40;99.90;;;;;;5045411;28;20090;-83
2022/07/13 04:21:13;;;;;;;5.40;4.90;;;20.50;99.90;;;;;;5047271;28;20047;-82
2022/07/13 04:23:40;;;;;;;7.18;4.75;;;20.40;99.90;;;;;;5039992;28;20795;-82
2022/07/13 04:26:06;;;;;;;6.93;4.80;;;20.40;99.90;;;;;;5044060;28;20041;-83
2022/07/13 04:28:32;;;;;;;5.72;4.63;;;20.40;99.90;;;;;;5052095;28;20061;-82
2022/07/13 04:30:57;;;;;;;5.45;4.47;;;20.50;99.90;;;;;;5045662;28;20029;-82
2022/07/13 04:33:24;;;;;;;5.93;4.60;;;20.50;99.90;;;;;;5045647;28;21500;-81
2022/07/13 04:35:49;;;;;;;8.35;4.80;;;20.50;99.90;;;;;;5044679;28;20734;-83
2022/07/13 04:38:15;;;;;;;5.68;4.78;;;20.50;99.90;;;;;;5050183;28;20120;-81
2022/07/13 04:40:40;;;;;;;5.93;4.72;;;20.50;99.90;;;;;;5045855;28;20078;-82
2022/07/13 04:43:07;;;;;;;6.20;4.82;;;20.50;99.90;;;;;;5028785;28;20071;-81
2022/07/13 04:45:32;;;;;;;5.30;4.80;;;20.50;99.90;;;;;;5026505;28;20056;-84
2022/07/13 04:47:58;;;;;;;5.95;5.13;;;20.50;99.90;;;;;;5047117;28;20447;-81
2022/07/13 04:50:24;;;;;;;6.05;4.97;;;20.50;99.90;;;;;;5048495;28;20086;-82
2022/07/13 04:52:50;;;;;;;8.10;5.00;;;20.60;99.90;;;;;;5046965;28;20041;-81
2022/07/13 04:55:16;;;;;;;7.50;5.22;;;20.60;99.90;;;;;;5026429;28;20179;-81
2022/07/13 04:57:42;;;;;;;6.05;5.32;;;20.60;99.90;;;;;;5046388;28;20068;-82
2022/07/13 05:00:09;;;;;;;6.32;4.68;;;20.60;99.90;;;;;;5041919;28;20068;-82
2022/07/13 05:02:35;;;;;;;6.47;5.07;;;20.60;99.90;;;;;;5033318;28;20045;-82
2022/07/13 05:05:02;;;;;;;8.15;5.13;;;20.60;99.90;;;;;;5046547;28;20068;-81
2022/07/13 05:07:29;;;;;;;8.27;5.00;;;20.60;99.90;;;;;;5025043;28;20048;-84
2022/07/13 05:09:55;;;;;;;7.18;5.13;;;20.60;99.90;;;;;;5042052;28;20045;-82
2022/07/13 05:12:21;;;;;;;6.07;5.30;;;20.60;99.90;;;;;;5045193;28;20158;-82
2022/07/13 05:14:46;;;;;;;7.05;5.80;;;20.60;99.90;;;;;;5045261;28;20037;-82
2022/07/13 05:17:12;;;;;;;7.45;5.57;;;20.60;99.90;;;;;;5042684;28;20492;-81
2022/07/13 05:19:38;;;;;;;5.95;5.35;;;20.60;99.90;;;;;;5029245;28;20098;-82
2022/07/13 05:22:04;;;;;;;8.25;5.80;;;20.60;99.90;;;;;;5049273;28;20123;-82
2022/07/13 05:24:29;;;;;;;8.30;5.70;;;20.60;99.90;;;;;;5042906;28;20443;-82
2022/07/13 05:26:55;;;;;;;7.90;5.60;;;20.60;99.90;;;;;;5044778;28;20476;-82
2022/07/13 05:29:21;;;;;;;7.70;6.05;;;20.60;99.90;;;;;;5046874;28;20052;-81
2022/07/13 05:31:46;;;;;;;8.15;5.90;;;20.60;99.90;;;;;;5029615;28;20035;-82
2022/07/13 05:34:12;;;;;;;10.57;6.53;;;20.60;99.90;;;;;;5041913;28;20091;-81
2022/07/13 05:36:37;;;;;;;8.88;6.20;;;20.60;99.90;;;;;;5045572;28;20482;-82
2022/07/13 05:39:04;;;;;;;12.40;6.28;;;20.70;99.90;;;;;;5042980;28;20029;-81
2022/07/13 05:41:29;;;;;;;7.38;6.60;;;20.70;99.90;;;;;;5044811;28;20135;-80
2022/07/13 05:43:55;;;;;;;7.30;6.60;;;20.70;99.90;;;;;;5047464;28;20069;-81
2022/07/13 05:46:20;;;;;;;9.80;6.97;;;20.70;99.90;;;;;;5046027;28;20064;-82
2022/07/13 05:48:46;;;;;;;8.23;7.10;;;20.70;99.90;;;;;;5046502;28;20146;-83
2022/07/13 05:51:11;;;;;;;7.45;6.65;;;20.70;99.90;;;;;;5047822;28;20032;-80
2022/07/13 05:53:37;;;;;;;7.53;6.45;;;20.70;99.90;;;;;;5047240;28;20045;-82
2022/07/13 05:56:03;;;;;;;10.15;6.75;;;20.70;99.90;;;;;;5026561;28;20037;-81
2022/07/13 05:58:28;;;;;;;8.48;6.60;;;20.70;99.90;;;;;;5045327;28;20041;-81
2022/07/13 06:00:54;;;;;;;8.02;7.03;;;20.80;99.90;;;;;;5045769;28;20040;-81
2022/07/13 06:03:19;;;;;;;9.68;6.85;;;20.80;99.90;;;;;;5048721;28;20088;-82
2022/07/13 06:05:45;;;;;;;9.90;6.70;;;20.80;99.90;;;;;;5043860;28;20049;-82
2022/07/13 06:08:10;;;;;;;10.55;7.38;;;20.80;99.90;;;;;;5044973;28;20044;-80
2022/07/13 06:10:36;;;;;;;8.65;7.72;;;20.90;99.90;;;;;;5030041;28;20036;-80
2022/07/13 06:13:01;;;;;;;9.52;7.60;;;20.90;99.90;;;;;;5045091;28;20037;-81
2022/07/13 06:15:27;;;;;;;11.45;7.80;;;21.00;99.90;;;;;;5043497;28;20408;-81
2022/07/13 06:17:52;;;;;;;9.38;7.80;;;21.00;99.90;;;;;;5047114;28;20098;-82
2022/07/13 06:20:18;;;;;;;8.32;7.47;;;21.00;99.90;;;;;;5045398;28;20032;-83
2022/07/13 06:23:09;;;;;;;9.18;8.10;;;21.00;99.90;;;;;;5045643;28;20040;-81
2022/07/13 06:25:29;;;;;;;10.40;8.40;;;21.10;99.90;;;;;;5046731;28;20045;-82
2022/07/13 06:27:54;;;;;;;13.15;8.82;;;21.10;99.90;;;;;;5028269;28;20106;-81
2022/07/13 06:30:20;;;;;;;10.88;8.32;;;21.20;99.90;;;;;;5043819;28;20817;-81
2022/07/13 06:32:46;;;;;;;10.02;8.55;;;21.30;99.90;;;;;;5046845;28;20025;-80
2022/07/13 06:35:12;;;;;;;11.52;8.30;;;21.40;99.90;;;;;;5043151;28;20127;-80
2022/07/13 06:37:37;;;;;;;11.93;9.20;;;21.50;99.90;;;;;;5044651;28;20040;-80
2022/07/13 06:40:03;;;;;;;10.43;9.13;;;21.50;99.90;;;;;;5045974;28;20051;-81
2022/07/13 06:42:30;;;;;;;10.60;8.52;;;21.60;99.90;;;;;;5042046;28;20494;-80
2022/07/13 06:44:55;;;;;;;11.05;8.55;;;21.60;99.90;;;;;;5036215;28;20049;-81
2022/07/13 06:47:21;;;;;;;12.90;9.00;;;21.60;99.90;;;;;;5048290;28;20075;-81
2022/07/13 06:49:46;;;;;;;11.45;8.80;;;21.90;99.90;;;;;;5050913;28;20461;-81
2022/07/13 06:52:12;;;;;;;12.30;9.18;;;22.00;99.90;;;;;;5046109;28;20458;-81
2022/07/13 06:54:37;;;;;;;11.32;8.13;;;22.20;99.90;;;;;;5045783;28;20037;-81
2022/07/13 06:57:03;;;;;;;12.07;9.10;;;22.40;99.90;;;;;;5049857;28;20036;-81
2022/07/13 06:59:28;;;;;;;13.52;9.27;;;22.60;99.90;;;;;;5025419;28;20041;-82
2022/07/13 07:01:54;;;;;;;12.55;9.80;;;22.50;99.90;;;;;;5031512;28;20083;-81
2022/07/13 07:04:19;;;;;;;10.75;8.75;;;22.70;99.90;;;;;;5031081;28;20041;-81
2022/07/13 07:06:45;;;;;;;12.75;9.77;;;22.80;99.90;;;;;;5031632;28;20041;-81
2022/07/13 07:09:11;;;;;;;12.05;9.35;;;23.00;99.90;;;;;;5047206;28;20045;-82
2022/07/13 07:11:36;;;;;;;10.93;8.27;;;22.90;99.90;;;;;;5048269;28;20030;-80
2022/07/13 07:14:02;;;;;;;12.27;9.32;;;23.00;99.90;;;;;;5031145;28;20045;-82
2022/07/13 07:16:28;;;;;;;10.40;9.23;;;23.00;99.90;;;;;;5037244;28;20034;-81
2022/07/13 07:18:53;;;;;;;14.85;9.13;;;23.00;99.90;;;;;;5049377;28;20494;-82
2022/07/13 07:21:19;;;;;;;14.75;9.65;;;23.10;99.90;;;;;;5053921;28;20048;-81
2022/07/13 07:23:44;;;;;;;10.32;9.18;;;23.10;99.90;;;;;;5034489;28;20674;-80
2022/07/13 07:26:10;;;;;;;10.48;8.90;;;23.10;99.90;;;;;;5034823;28;20045;-83
2022/07/13 07:28:35;;;;;;;12.88;9.27;;;23.10;99.90;;;;;;5034804;28;20037;-83
2022/07/13 07:31:01;;;;;;;12.85;9.10;;;23.20;99.90;;;;;;5034757;28;20069;-83
2022/07/13 07:33:26;;;;;;;12.65;8.93;;;23.30;99.90;;;;;;5043397;28;20044;-82
2022/07/13 07:35:52;;;;;;;12.45;7.97;;;23.40;99.90;;;;;;5051110;28;20041;-82
2022/07/13 07:38:17;;;;;;;11.00;7.40;;;23.40;99.90;;;;;;5047412;28;20519;-83
2022/07/13 07:40:43;;;;;;;9.68;7.10;;;23.50;99.90;;;;;;5034191;28;20048;-83
2022/07/13 07:43:09;;;;;;;12.73;7.97;;;23.70;99.90;;;;;;5053127;28;20048;-82
2022/07/13 07:45:35;;;;;;;10.07;7.65;;;23.80;99.90;;;;;;5036229;28;20513;-83
2022/07/13 07:48:00;;;;;;;10.63;8.00;;;23.80;99.90;;;;;;5033390;28;20138;-83
2022/07/13 07:50:26;;;;;;;12.80;7.90;;;23.90;99.90;;;;;;5016875;28;20037;-85
2022/07/13 07:52:51;;;;;;;12.25;7.70;;;24.00;99.90;;;;;;5033173;28;20125;-83
2022/07/13 07:55:17;;;;;;;10.05;6.95;;;24.10;99.90;;;;;;5032804;28;20526;-84
2022/07/13 07:57:47;;;;;;;9.95;7.63;;;24.20;99.90;;;;;;5041270;28;20033;-84
2022/07/13 08:00:14;;;;;;;12.10;8.40;;;24.30;99.90;;;;;;5053736;28;20124;-83
2022/07/13 08:02:40;;;;;;;12.77;8.38;;;24.20;99.90;;;;;;5038790;28;20046;-84
2022/07/13 08:05:07;;;;;;;11.40;8.57;;;24.20;99.90;;;;;;5049637;28;20120;-84
2022/07/13 08:07:32;;;;;;;13.32;9.45;;;24.10;99.90;;;;;;5047514;28;20508;-83
2022/07/13 08:09:58;;;;;;;13.68;9.15;;;24.20;99.90;;;;;;5053103;28;20040;-82
2022/07/13 08:12:23;;;;;;;10.77;7.63;;;24.20;99.90;;;;;;5053271;28;20495;-83
2022/07/13 08:14:49;;;;;;;11.27;8.65;;;24.40;99.90;;;;;;5037305;28;20127;-87
2022/07/13 08:17:14;;;;;;;15.52;10.02;;;24.30;99.90;;;;;;5041743;28;20399;-82
2022/07/13 08:19:40;;;;;;;11.98;8.98;;;24.40;99.90;;;;;;5040727;28;20037;-85
2022/07/13 08:22:05;;;;;;;13.25;9.15;;;24.40;99.90;;;;;;5032449;28;20045;-82
2022/07/13 08:24:31;;;;;;;15.63;8.48;;;24.50;99.90;;;;;;5035955;28;20092;-85
2022/07/13 08:26:57;;;;;;;11.02;8.10;;;24.50;99.90;;;;;;5052312;28;20049;-84
2022/07/13 08:29:22;;;;;;;13.27;9.10;;;24.50;99.90;;;;;;5040324;28;20037;-82
2022/07/13 08:31:48;;;;;;;12.20;7.93;;;24.60;99.90;;;;;;5032939;28;20037;-84
2022/07/13 08:39:42;;;;;;;;;;;24.80;99.90;;;;;;5049616;28;20127;-84
2022/07/13 08:42:09;;;;;;;11.07;8.27;;;24.90;99.90;;;;;;5032508;28;19956;-84
2022/07/13 08:44:34;;;;;;;10.60;7.63;;;24.90;99.90;;;;;;5032389;28;20037;-83
2022/07/13 08:47:00;;;;;;;10.68;6.97;;;24.90;99.90;;;;;;5032791;28;20042;-83
2022/07/13 08:49:27;;;;;;;10.48;7.35;;;24.90;99.90;;;;;;5032248;28;20124;-84
2022/07/13 08:51:53;;;;;;;12.70;6.68;;;25.00;99.90;;;;;;5031022;28;20049;-84
2022/07/13 08:54:19;;;;;;;9.02;5.75;;;24.90;99.90;;;;;;5014287;28;20033;-84
2022/07/13 08:56:44;;;;;;;11.20;6.43;;;25.10;99.90;;;;;;5015729;28;20099;-83
2022/07/13 08:59:10;;;;;;;9.75;7.00;;;25.10;99.90;;;;;;5032899;28;20049;-83
2022/07/13 09:01:37;;;;;;;7.15;5.15;;;25.10;99.90;;;;;;5046468;28;20048;-84
2022/07/13 09:04:07;;;;;;;11.52;6.65;;;25.10;99.90;;;;;;5028518;28;20064;-83
2022/07/13 09:06:44;;;;;;;10.98;5.93;;;25.10;99.90;;;;;;5044172;28;20052;-84
2022/07/13 09:09:31;;;;;;;8.27;5.68;;;25.20;99.90;;;;;;5043691;28;20041;-83
2022/07/13 09:12:12;;;;;;;9.20;4.57;;;25.20;99.90;;;;;;5028911;28;20044;-82
2022/07/13 09:14:39;;;;;;;8.43;4.57;;;25.30;99.90;;;;;;5032772;28;20048;-82
2022/07/13 09:17:05;;;;;;;7.60;4.78;;;25.50;99.90;;;;;;5047887;28;20049;-83
2022/07/13 09:19:36;;;;;;;7.55;4.50;;;25.40;99.90;;;;;;5027623;28;20038;-82
2022/07/13 09:22:10;;;;;;;7.45;4.20;;;25.50;99.90;;;;;;5032963;28;20503;-83
2022/07/13 09:24:42;;;;;;;;;;;25.60;99.90;;;;;;5046648;28;20040;-84
2022/07/13 09:27:08;;;;;;;8.75;4.40;;;25.60;99.90;;;;;;5030178;28;20302;-83
2022/07/13 09:29:36;;;;;;;8.27;4.53;;;25.60;99.90;;;;;;5045525;28;20033;-82
2022/07/13 09:32:09;;;;;;;10.15;4.32;;;25.60;99.90;;;;;;5045328;28;20048;-82
2022/07/13 09:34:46;;;;;;;7.85;4.53;;;25.60;99.90;;;;;;5045553;28;20391;-83
2022/07/13 09:37:12;;;;;;;9.27;4.57;;;25.80;99.90;;;;;;5046959;28;20072;-84
2022/07/13 09:40:06;;;;;;;7.43;4.93;;;25.70;99.90;;;;;;5047205;28;20029;-83
2022/07/13 09:42:34;;;;;;;12.43;3.60;;;25.70;99.90;;;;;;5028483;28;20098;-84
2022/07/13 09:47:54;;;;;;;9.32;5.05;;;25.90;99.90;;;;;;5048728;28;20503;-82
2022/07/13 09:50:24;;;;;;;9.73;5.65;;;25.90;99.90;;;;;;5048643;28;20029;-83
2022/07/13 09:52:52;;;;;;;9.73;4.68;;;25.80;99.90;;;;;;5047234;28;20077;-81
2022/07/13 09:55:23;;;;;;;8.48;3.65;;;25.70;99.90;;;;;;5033707;28;20029;-82
2022/07/13 09:57:54;;;;;;;5.40;2.78;;;25.70;99.90;;;;;;5046957;28;20037;-83
2022/07/13 10:00:21;;;;;;;6.70;2.78;;;25.80;99.90;;;;;;5058378;28;20403;-83
2022/07/13 10:02:48;;;;;;;5.45;2.70;;;25.90;99.90;;;;;;5046064;28;20541;-84
2022/07/13 10:05:16;;;;;;;7.95;2.50;;;26.00;99.90;;;;;;5045984;28;20075;-81
2022/07/13 10:07:43;;;;;;;4.85;2.63;;;26.10;99.90;;;;;;5047352;28;20606;-81
2022/07/13 10:10:10;;;;;;;5.05;2.60;;;26.00;99.90;;;;;;5045564;28;20109;-84
2022/07/13 10:12:36;;;;;;;3.35;2.15;;;26.00;99.90;;;;;;5047971;28;20037;-81
2022/07/13 10:15:06;;;;;;;9.30;2.60;;;26.00;99.90;;;;;;5046017;28;20074;-82
2022/07/13 10:17:33;;;;;;;4.47;2.22;;;26.00;99.90;;;;;;5050336;28;20103;-83
2022/07/13 10:20:09;;;;;;;5.82;3.00;;;26.10;99.90;;;;;;5050843;28;20037;-82
2022/07/13 10:22:39;;;;;;;5.07;3.17;;;26.20;99.90;;;;;;5031137;28;21121;-81
2022/07/13 10:25:06;;;;;;;6.47;3.10;;;26.40;99.90;;;;;;5059545;28;20045;-83
2022/07/13 10:27:33;;;;;;;8.07;3.10;;;26.40;99.90;;;;;;5051262;28;20041;-82
2022/07/13 10:30:10;;;;;;;5.45;3.00;;;26.40;99.90;;;;;;5048574;28;20044;-83
2022/07/13 10:32:40;;;;;;;7.15;2.90;;;26.50;99.90;;;;;;5051706;28;20041;-81
2022/07/13 10:35:17;;;;;;;6.97;2.70;;;26.50;99.90;;;;;;5046233;28;20039;-83
2022/07/13 10:37:58;;;;;;;6.60;3.00;;;26.60;99.90;;;;;;5047474;28;20411;-84
2022/07/13 10:40:34;;;;;;;5.00;2.53;;;26.70;99.90;;;;;;5028395;28;20546;-81
2022/07/13 10:43:05;;;;;;;4.78;2.33;;;26.80;99.90;;;;;;5045655;28;20585;-82
2022/07/13 10:45:40;;;;;;;6.05;2.60;;;26.70;99.90;;;;;;5028411;28;20041;-82
2022/07/13 10:48:34;;;;;;;5.85;2.63;;;26.70;99.90;;;;;;5042478;28;20041;-82
2022/07/13 10:51:01;;;;;;;4.72;2.00;;;26.60;99.90;;;;;;5064000;28;20057;-82
2022/07/13 10:53:38;;;;;;;4.68;2.17;;;26.70;99.90;;;;;;5053621;28;20068;-82
2022/07/13 10:56:18;;;;;;;4.65;2.45;;;26.70;99.90;;;;;;5049551;28;20029;-82
2022/07/13 10:58:45;;;;;;;8.40;2.90;;;26.60;99.90;;;;;;5052892;28;20040;-82
2022/07/13 11:01:30;;;;;;;4.20;2.10;;;26.70;99.90;;;;;;5074354;28;20048;-81
2022/07/13 11:03:56;;;;;;;4.65;2.40;;;26.70;99.90;;;;;;5032789;28;20052;-82
2022/07/13 11:06:26;;;;;;;7.45;2.40;;;26.70;99.80;;;;;;5058580;28;20051;-81
2022/07/13 11:09:13;;;;;;;4.15;1.90;;;26.80;98.90;;;;;;5029911;28;20037;-82
2022/07/13 11:11:50;;;;;;;6.43;1.95;;;26.80;99.20;;;;;;5070455;28;20034;-81
2022/07/13 11:14:39;;;;;;;3.38;2.03;;;26.80;98.70;;;;;;5050047;28;20033;-82
2022/07/13 11:17:12;;;;;;;3.38;1.80;;;26.90;99.10;;;;;;5054259;28;20068;-82
2022/07/13 11:20:03;;;;;;;5.35;2.40;;;27.10;99.00;;;;;;5056633;28;20120;-82
2022/07/13 11:25:13;;;;;;;4.32;2.50;;;27.00;98.30;;;;;;5051693;28;20086;-83
2022/07/13 11:25:23;;;;;;;3.92;1.90;;;27.00;98.50;;;;;;5044164;28;20049;-81
2022/07/13 11:28:04;;;;;;;3.90;1.98;;;27.10;98.80;;;;;;5060434;28;20168;-81
2022/07/13 11:30:34;;;;;;;2.83;1.70;;;27.30;98.60;;;;;;5047911;28;20033;-82
2022/07/13 11:33:00;;;;;;;7.68;1.85;;;27.50;98.70;;;;;;5048539;28;20060;-82
2022/07/13 11:35:26;;;;;;;6.43;1.95;;;27.20;98.40;;;;;;5052421;28;20483;-84
2022/07/13 11:37:52;;;;;;;3.38;1.65;;;27.30;98.40;;;;;;5044829;28;20450;-83
2022/07/13 11:40:30;;;;;;;3.92;2.13;;;27.10;98.60;;;;;;5046486;28;20043;-82
2022/07/13 11:42:59;;;;;;;9.25;2.20;;;26.80;99.20;;;;;;5050741;28;20037;-83
2022/07/13 11:45:30;;;;;;;10.43;2.17;;;26.70;99.50;;;;;;5051021;28;20102;-83
2022/07/13 11:48:14;;;;;;;5.65;1.88;;;26.80;99.40;;;;;;5054580;28;20037;-84
2022/07/13 11:50:43;;;;;;;7.18;2.03;;;26.90;99.50;;;;;;5047847;28;20037;-83
2022/07/13 11:53:37;;;;;;;4.88;1.65;;;26.80;98.80;;;;;;5045960;28;20084;-82
2022/07/13 11:56:05;;;;;;;7.43;2.20;;;26.90;98.90;;;;;;5044153;28;20042;-82
2022/07/13 11:58:32;;;;;;;6.28;2.13;;;26.70;99.90;;;;;;5034200;28;20037;-81
2022/07/13 12:01:00;;;;;;;7.32;2.30;;;26.60;99.70;;;;;;5036659;28;20072;-82
2022/07/13 12:03:29;;;;;;;6.22;2.35;;;26.80;99.70;;;;;;5068416;28;20041;-83
2022/07/13 12:05:59;;;;;;;6.22;1.95;;;26.60;99.80;;;;;;5053843;28;20054;-81
2022/07/13 12:08:25;;;;;;;8.43;2.30;;;26.50;99.90;;;;;;5032315;28;20041;-82
2022/07/13 12:10:51;;;;;;;4.80;2.20;;;26.50;99.90;;;;;;5051534;28;20064;-83
2022/07/13 12:13:17;;;;;;;5.38;2.38;;;26.40;99.90;;;;;;5051041;28;20068;-82
2022/07/13 12:15:44;;;;;;;5.45;2.35;;;26.50;99.90;;;;;;5051339;28;20029;-83
2022/07/13 12:18:12;;;;;;;26.55;2.75;;;26.70;99.90;;;;;;5050004;28;20037;-83
2022/07/13 12:20:38;;;;;;;5.30;2.08;;;26.90;99.90;;;;;;5051805;28;20045;-84
2022/07/13 12:23:07;;;;;;;5.95;1.85;;;27.10;99.90;;;;;;5029811;28;20116;-84
2022/07/13 12:25:37;;;;;;;3.67;2.00;;;27.20;99.90;;;;;;5048643;28;20499;-82
2022/07/13 12:28:12;;;;;;;8.48;1.90;;;27.10;99.90;;;;;;5050376;28;20076;-82
2022/07/13 12:30:59;;;;;;;3.13;1.63;;;27.30;99.90;;;;;;5043505;28;20086;-83
2022/07/13 12:33:25;;;;;;;3.65;1.67;;;27.50;99.10;;;;;;5034026;28;20046;-84
2022/07/13 12:36:04;;;;;;;3.90;2.03;;;27.30;99.90;;;;;;5033450;28;20048;-83
2022/07/13 12:38:31;;;;;;;5.60;1.98;;;26.90;99.90;;;;;;5035459;28;20038;-82
2022/07/13 12:40:58;;;;;;;4.57;1.90;;;26.80;99.90;;;;;;5033796;28;20053;-83
2022/07/13 12:43:30;;;;;;;7.18;2.20;;;27.00;99.90;;;;;;5037234;28;20055;-83
2022/07/13 12:46:00;;;;;;;6.03;2.30;;;27.20;99.90;;;;;;5053093;28;20045;-84
2022/07/13 12:48:27;;;;;;;4.82;1.90;;;27.20;99.90;;;;;;5034106;28;20055;-83
2022/07/13 12:50:58;;;;;;;6.55;2.00;;;27.30;99.90;;;;;;5044701;28;20037;-82
2022/07/13 12:53:24;;;;;;;4.97;2.15;;;27.30;99.90;;;;;;5047139;28;20116;-83
2022/07/13 12:55:54;;;;;;;4.97;2.03;;;27.30;99.90;;;;;;5033618;28;20037;-82